EDW28G EDDB-LSZH
Flight info
| Callsign | EDW28G |
|---|---|
| Flight time | 1h 26m |
| Altitude | 30000 |
| Route | KISUC1Q/06R KISUC Z20 MAG Z92 ABGUS DCT LUXUX/N0497F310 DCT SWALM/N0499F300 DCT OMOGI/N0498F310 T721 RILAX |
| Aircraft | A359/H-SDE2E3GHIJ3J4J5LM1ORWXY/LB1D1 |
Departure
| Time | 2026-05-05 18:04 |
|---|---|
| Airport | Berlin Brandenburg Airport (EDDB) |
Arrival
| Time | 2026-05-05 19:30 |
|---|---|
| Airport | Zürich Airport (LSZH) |
| Time | Latitude | Longitude | Altitude | Speed | Heading |
|---|---|---|---|---|---|
| 2026-05-05 17:24 | 52.36119 | 13.50287 | 156 ft | 0 kts | 249° |
| 2026-05-05 17:46 | 52.36118 | 13.50284 | 156 ft | 3 kts | 249° |
| 2026-05-05 17:46 | 52.36113 | 13.50259 | 156 ft | 1 kts | 249° |
| 2026-05-05 17:46 | 52.36110 | 13.50249 | 156 ft | 1 kts | 249° |
| 2026-05-05 17:46 | 52.36108 | 13.50241 | 156 ft | 1 kts | 249° |
| 2026-05-05 17:47 | 52.36107 | 13.50237 | 156 ft | 1 kts | 249° |
| 2026-05-05 17:47 | 52.36107 | 13.50236 | 156 ft | 3 kts | 249° |
| 2026-05-05 17:47 | 52.36115 | 13.50268 | 155 ft | 4 kts | 249° |
| 2026-05-05 17:47 | 52.36124 | 13.50309 | 154 ft | 4 kts | 249° |
| 2026-05-05 17:48 | 52.36134 | 13.50350 | 154 ft | 4 kts | 253° |
| 2026-05-05 17:48 | 52.36141 | 13.50387 | 154 ft | 4 kts | 233° |
| 2026-05-05 17:48 | 52.36154 | 13.50408 | 154 ft | 4 kts | 202° |
| 2026-05-05 17:48 | 52.36173 | 13.50414 | 154 ft | 4 kts | 161° |
| 2026-05-05 17:49 | 52.36196 | 13.50398 | 154 ft | 3 kts | 158° |
| 2026-05-05 17:49 | 52.36206 | 13.50388 | 154 ft | 3 kts | 158° |
| 2026-05-05 17:49 | 52.36184 | 13.50399 | 154 ft | 3 kts | 158° |
| 2026-05-05 17:49 | 52.36162 | 13.50409 | 154 ft | 3 kts | 158° |
| 2026-05-05 17:50 | 52.36153 | 13.50413 | 155 ft | 0 kts | 158° |
| 2026-05-05 17:53 | 52.36151 | 13.50414 | 155 ft | 1 kts | 157° |
| 2026-05-05 17:53 | 52.36138 | 13.50424 | 155 ft | 4 kts | 156° |
| 2026-05-05 17:53 | 52.36099 | 13.50454 | 155 ft | 8 kts | 154° |
| 2026-05-05 17:54 | 52.36043 | 13.50494 | 156 ft | 9 kts | 158° |
| 2026-05-05 17:54 | 52.35986 | 13.50531 | 156 ft | 9 kts | 159° |
| 2026-05-05 17:54 | 52.35924 | 13.50571 | 155 ft | 9 kts | 159° |
| 2026-05-05 17:54 | 52.35857 | 13.50612 | 156 ft | 9 kts | 159° |
| 2026-05-05 17:55 | 52.35787 | 13.50656 | 154 ft | 13 kts | 159° |
| 2026-05-05 17:55 | 52.35718 | 13.50685 | 153 ft | 9 kts | 188° |
| 2026-05-05 17:55 | 52.35675 | 13.50614 | 154 ft | 10 kts | 244° |
| 2026-05-05 17:55 | 52.35646 | 13.50490 | 154 ft | 14 kts | 249° |
| 2026-05-05 17:56 | 52.35607 | 13.50328 | 154 ft | 17 kts | 249° |
| 2026-05-05 17:56 | 52.35560 | 13.50131 | 154 ft | 20 kts | 249° |
| 2026-05-05 17:56 | 52.35506 | 13.49902 | 154 ft | 23 kts | 249° |
| 2026-05-05 17:56 | 52.35443 | 13.49643 | 154 ft | 26 kts | 248° |
| 2026-05-05 17:57 | 52.35376 | 13.49356 | 155 ft | 28 kts | 249° |
| 2026-05-05 17:57 | 52.35302 | 13.49044 | 155 ft | 31 kts | 249° |
| 2026-05-05 17:57 | 52.35223 | 13.48710 | 155 ft | 32 kts | 249° |
| 2026-05-05 17:57 | 52.35138 | 13.48355 | 156 ft | 34 kts | 249° |
| 2026-05-05 17:58 | 52.35059 | 13.48021 | 156 ft | 26 kts | 249° |
| 2026-05-05 17:58 | 52.34992 | 13.47743 | 157 ft | 28 kts | 249° |
| 2026-05-05 17:58 | 52.34929 | 13.47477 | 157 ft | 26 kts | 249° |
| 2026-05-05 17:58 | 52.34862 | 13.47199 | 157 ft | 28 kts | 249° |
| 2026-05-05 17:59 | 52.34826 | 13.47049 | 158 ft | 4 kts | 249° |
| 2026-05-05 17:59 | 52.34813 | 13.46994 | 158 ft | 5 kts | 249° |
| 2026-05-05 17:59 | 52.34796 | 13.46919 | 158 ft | 9 kts | 249° |
| 2026-05-05 17:59 | 52.34792 | 13.46902 | 158 ft | 0 kts | 249° |
| 2026-05-05 18:00 | 52.34779 | 13.46846 | 158 ft | 8 kts | 249° |
| 2026-05-05 18:00 | 52.34751 | 13.46772 | 159 ft | 7 kts | 210° |
| 2026-05-05 18:00 | 52.34708 | 13.46775 | 161 ft | 6 kts | 165° |
| 2026-05-05 18:00 | 52.34693 | 13.46783 | 161 ft | 0 kts | 161° |
| 2026-05-05 18:01 | 52.34669 | 13.46796 | 163 ft | 5 kts | 161° |
| 2026-05-05 18:02 | 52.34634 | 13.46816 | 164 ft | 6 kts | 160° |
| 2026-05-05 18:02 | 52.34592 | 13.46851 | 165 ft | 8 kts | 146° |
| 2026-05-05 18:02 | 52.34570 | 13.46921 | 166 ft | 7 kts | 94° |
| 2026-05-05 18:02 | 52.34581 | 13.47005 | 166 ft | 8 kts | 72° |
| 2026-05-05 18:03 | 52.34604 | 13.47114 | 165 ft | 12 kts | 69° |
| 2026-05-05 18:03 | 52.34659 | 13.47337 | 164 ft | 47 kts | 68° |
| 2026-05-05 18:03 | 52.34876 | 13.48254 | 166 ft | 123 kts | 69° |
| 2026-05-05 18:03 | 52.35262 | 13.49886 | 268 ft | 177 kts | 69° |
| 2026-05-05 18:04 | 52.35613 | 13.51891 | 907 ft | 191 kts | 83° |
| 2026-05-05 18:04 | 52.35147 | 13.53945 | 1710 ft | 200 kts | 129° |
| 2026-05-05 18:04 | 52.34022 | 13.55123 | 2843 ft | 189 kts | 157° |
| 2026-05-05 18:04 | 52.32733 | 13.55440 | 3715 ft | 191 kts | 182° |
| 2026-05-05 18:05 | 52.31444 | 13.54681 | 4227 ft | 208 kts | 213° |
| 2026-05-05 18:05 | 52.30304 | 13.53209 | 4640 ft | 214 kts | 220° |
| 2026-05-05 18:05 | 52.29157 | 13.51619 | 5183 ft | 219 kts | 220° |
| 2026-05-05 18:05 | 52.27984 | 13.50042 | 6126 ft | 217 kts | 219° |
| 2026-05-05 18:06 | 52.26884 | 13.48371 | 7040 ft | 216 kts | 231° |
| 2026-05-05 18:06 | 52.26600 | 13.47681 | 7356 ft | 216 kts | 242° |
| 2026-05-05 18:06 | 52.26181 | 13.43460 | 8337 ft | 250 kts | 270° |
| 2026-05-05 18:06 | 52.26224 | 13.40517 | 8986 ft | 267 kts | 271° |
| 2026-05-05 18:07 | 52.26229 | 13.37449 | 9938 ft | 272 kts | 266° |
| 2026-05-05 18:07 | 52.25954 | 13.34373 | 10863 ft | 277 kts | 258° |
| 2026-05-05 18:07 | 52.25696 | 13.32334 | 11456 ft | 277 kts | 256° |
| 2026-05-05 18:07 | 52.25239 | 13.29244 | 12313 ft | 283 kts | 254° |
| 2026-05-05 18:08 | 52.24557 | 13.25103 | 13612 ft | 287 kts | 253° |
| 2026-05-05 18:08 | 52.24018 | 13.21952 | 14467 ft | 291 kts | 253° |
| 2026-05-05 18:08 | 52.23467 | 13.18735 | 15292 ft | 295 kts | 253° |
| 2026-05-05 18:08 | 52.22917 | 13.15498 | 16125 ft | 299 kts | 253° |
| 2026-05-05 18:09 | 52.22551 | 13.13321 | 16670 ft | 301 kts | 253° |
| 2026-05-05 18:09 | 52.21995 | 13.10001 | 17526 ft | 305 kts | 254° |
| 2026-05-05 18:09 | 52.21435 | 13.06636 | 18328 ft | 309 kts | 254° |
| 2026-05-05 18:09 | 52.20870 | 13.03234 | 19089 ft | 312 kts | 254° |
| 2026-05-05 18:10 | 52.20302 | 12.99816 | 19857 ft | 314 kts | 253° |
| 2026-05-05 18:10 | 52.19727 | 12.96364 | 20630 ft | 317 kts | 253° |
| 2026-05-05 18:10 | 52.19144 | 12.92881 | 21393 ft | 319 kts | 253° |
| 2026-05-05 18:10 | 52.18556 | 12.89370 | 22149 ft | 322 kts | 253° |
| 2026-05-05 18:11 | 52.17961 | 12.85835 | 22898 ft | 325 kts | 252° |
| 2026-05-05 18:11 | 52.17367 | 12.82311 | 23602 ft | 328 kts | 252° |
| 2026-05-05 18:11 | 52.16760 | 12.78718 | 24209 ft | 331 kts | 252° |
| 2026-05-05 18:11 | 52.16145 | 12.75086 | 24821 ft | 334 kts | 252° |
| 2026-05-05 18:12 | 52.15526 | 12.71435 | 25435 ft | 336 kts | 252° |
| 2026-05-05 18:12 | 52.14900 | 12.67751 | 26052 ft | 339 kts | 252° |
| 2026-05-05 18:12 | 52.14267 | 12.64032 | 26675 ft | 341 kts | 252° |
| 2026-05-05 18:12 | 52.13631 | 12.60302 | 27278 ft | 344 kts | 252° |
| 2026-05-05 18:13 | 52.12986 | 12.56530 | 27872 ft | 347 kts | 252° |
| 2026-05-05 18:13 | 52.12334 | 12.52730 | 28463 ft | 350 kts | 252° |
| 2026-05-05 18:13 | 52.11676 | 12.48899 | 29041 ft | 352 kts | 252° |
| 2026-05-05 18:13 | 52.11015 | 12.45055 | 29625 ft | 354 kts | 252° |
| 2026-05-05 18:14 | 52.10355 | 12.41220 | 29812 ft | 351 kts | 252° |
| 2026-05-05 18:14 | 52.08998 | 12.33400 | 29815 ft | 378 kts | 252° |
| 2026-05-05 18:14 | 52.08264 | 12.29195 | 29812 ft | 395 kts | 252° |
| 2026-05-05 18:15 | 52.07500 | 12.24823 | 29811 ft | 410 kts | 252° |
| 2026-05-05 18:15 | 52.06704 | 12.20266 | 29815 ft | 426 kts | 252° |
| 2026-05-05 18:15 | 52.05880 | 12.15555 | 29810 ft | 441 kts | 252° |
| 2026-05-05 18:15 | 52.05027 | 12.10691 | 29809 ft | 452 kts | 252° |
| 2026-05-05 18:16 | 52.04167 | 12.05779 | 29814 ft | 452 kts | 252° |
| 2026-05-05 18:16 | 52.02448 | 11.96003 | 29817 ft | 450 kts | 252° |
| 2026-05-05 18:17 | 52.00728 | 11.86301 | 29827 ft | 451 kts | 251° |
| 2026-05-05 18:17 | 51.98988 | 11.76539 | 29822 ft | 451 kts | 251° |
| 2026-05-05 18:18 | 51.97309 | 11.66721 | 29823 ft | 452 kts | 252° |
| 2026-05-05 18:18 | 51.95650 | 11.56878 | 29827 ft | 452 kts | 252° |
| 2026-05-05 18:19 | 51.93974 | 11.47057 | 29830 ft | 452 kts | 251° |
| 2026-05-05 18:19 | 51.92292 | 11.37310 | 29830 ft | 453 kts | 251° |
| 2026-05-05 18:20 | 51.90583 | 11.27478 | 29830 ft | 453 kts | 251° |
| 2026-05-05 18:20 | 51.88872 | 11.17655 | 29827 ft | 454 kts | 251° |
| 2026-05-05 18:21 | 51.87148 | 11.07820 | 29832 ft | 454 kts | 251° |
| 2026-05-05 18:21 | 51.85428 | 10.98056 | 29836 ft | 455 kts | 251° |
| 2026-05-05 18:22 | 51.83679 | 10.88227 | 29839 ft | 455 kts | 251° |
| 2026-05-05 18:22 | 51.81916 | 10.78378 | 29838 ft | 456 kts | 251° |
| 2026-05-05 18:23 | 51.80149 | 10.68541 | 29834 ft | 457 kts | 251° |
| 2026-05-05 18:23 | 51.78367 | 10.58668 | 29833 ft | 457 kts | 251° |
| 2026-05-05 18:24 | 51.76591 | 10.48873 | 29834 ft | 458 kts | 250° |
| 2026-05-05 18:24 | 51.74782 | 10.38960 | 30192 ft | 464 kts | 250° |
| 2026-05-05 18:24 | 51.73870 | 10.33975 | 30633 ft | 464 kts | 250° |
| 2026-05-05 18:25 | 51.72957 | 10.28993 | 30811 ft | 461 kts | 250° |
| 2026-05-05 18:25 | 51.71134 | 10.19103 | 30822 ft | 460 kts | 250° |
| 2026-05-05 18:26 | 51.69299 | 10.09215 | 30821 ft | 461 kts | 250° |
| 2026-05-05 18:26 | 51.67467 | 9.99390 | 30815 ft | 462 kts | 250° |
| 2026-05-05 18:27 | 51.65517 | 9.89535 | 30815 ft | 460 kts | 245° |
| 2026-05-05 18:27 | 51.62374 | 9.80676 | 30809 ft | 454 kts | 229° |
| 2026-05-05 18:28 | 51.55796 | 9.71969 | 30807 ft | 450 kts | 206° |
| 2026-05-05 18:28 | 51.50076 | 9.68113 | 30800 ft | 450 kts | 200° |
| 2026-05-05 18:29 | 51.44209 | 9.64581 | 30802 ft | 450 kts | 200° |
| 2026-05-05 18:29 | 51.38353 | 9.61048 | 30803 ft | 450 kts | 200° |
| 2026-05-05 18:30 | 51.32494 | 9.57459 | 30801 ft | 451 kts | 200° |
| 2026-05-05 18:30 | 51.26635 | 9.54001 | 30798 ft | 452 kts | 195° |
| 2026-05-05 18:31 | 51.20533 | 9.51647 | 30802 ft | 452 kts | 191° |
| 2026-05-05 18:31 | 51.14370 | 9.49597 | 30799 ft | 453 kts | 191° |
| 2026-05-05 18:32 | 51.08189 | 9.47584 | 30800 ft | 454 kts | 191° |
| 2026-05-05 18:32 | 51.01998 | 9.45548 | 30799 ft | 455 kts | 191° |
| 2026-05-05 18:33 | 50.95789 | 9.43493 | 30799 ft | 457 kts | 191° |
| 2026-05-05 18:33 | 50.89598 | 9.41447 | 30800 ft | 458 kts | 190° |
| 2026-05-05 18:34 | 50.83361 | 9.39392 | 30800 ft | 458 kts | 190° |
| 2026-05-05 18:34 | 50.77112 | 9.37340 | 30800 ft | 459 kts | 190° |
| 2026-05-05 18:35 | 50.70859 | 9.35292 | 30800 ft | 459 kts | 190° |
| 2026-05-05 18:35 | 50.64609 | 9.33249 | 30807 ft | 459 kts | 190° |
| 2026-05-05 18:36 | 50.58382 | 9.31220 | 30804 ft | 460 kts | 189° |
| 2026-05-05 18:36 | 50.52112 | 9.29182 | 30808 ft | 461 kts | 189° |
| 2026-05-05 18:37 | 50.45822 | 9.27143 | 30816 ft | 461 kts | 189° |
| 2026-05-05 18:37 | 50.39537 | 9.25113 | 30815 ft | 462 kts | 189° |
| 2026-05-05 18:38 | 50.33238 | 9.23084 | 30817 ft | 462 kts | 189° |
| 2026-05-05 18:38 | 50.26933 | 9.21056 | 30813 ft | 463 kts | 189° |
| 2026-05-05 18:39 | 50.20662 | 9.19045 | 30819 ft | 463 kts | 189° |
| 2026-05-05 18:39 | 50.14348 | 9.17027 | 30821 ft | 464 kts | 189° |
| 2026-05-05 18:40 | 50.08020 | 9.15010 | 30819 ft | 464 kts | 189° |
| 2026-05-05 18:40 | 50.01694 | 9.12997 | 30831 ft | 464 kts | 189° |
| 2026-05-05 18:41 | 49.95362 | 9.10990 | 30825 ft | 465 kts | 189° |
| 2026-05-05 18:41 | 49.89064 | 9.08999 | 30831 ft | 465 kts | 189° |
| 2026-05-05 18:42 | 49.82721 | 9.07000 | 30832 ft | 465 kts | 189° |
| 2026-05-05 18:42 | 49.76375 | 9.05004 | 30836 ft | 466 kts | 189° |
| 2026-05-05 18:43 | 49.70016 | 9.03007 | 30831 ft | 466 kts | 189° |
| 2026-05-05 18:43 | 49.63671 | 9.01021 | 30832 ft | 466 kts | 189° |
| 2026-05-05 18:44 | 49.57314 | 8.99037 | 30837 ft | 466 kts | 189° |
| 2026-05-05 18:44 | 49.50989 | 8.97069 | 30832 ft | 467 kts | 189° |
| 2026-05-05 18:45 | 49.44630 | 8.95095 | 30827 ft | 467 kts | 189° |
| 2026-05-05 18:45 | 49.38253 | 8.93121 | 30826 ft | 467 kts | 190° |
| 2026-05-05 18:46 | 49.31890 | 8.91157 | 30832 ft | 467 kts | 190° |
| 2026-05-05 18:46 | 49.25517 | 8.89194 | 30833 ft | 467 kts | 190° |
| 2026-05-05 18:47 | 49.19192 | 8.87252 | 30831 ft | 467 kts | 190° |
| 2026-05-05 18:47 | 49.12840 | 8.85306 | 30829 ft | 466 kts | 190° |
| 2026-05-05 18:48 | 49.06483 | 8.83363 | 30830 ft | 466 kts | 190° |
| 2026-05-05 18:48 | 49.00128 | 8.81426 | 30829 ft | 465 kts | 190° |
| 2026-05-05 18:49 | 48.93784 | 8.79497 | 30830 ft | 465 kts | 191° |
| 2026-05-05 18:49 | 48.87432 | 8.77572 | 30831 ft | 464 kts | 191° |
| 2026-05-05 18:50 | 48.81129 | 8.75827 | 30839 ft | 456 kts | 189° |
| 2026-05-05 18:50 | 48.74805 | 8.74188 | 30833 ft | 464 kts | 189° |
| 2026-05-05 18:51 | 48.68453 | 8.72522 | 30834 ft | 463 kts | 189° |
| 2026-05-05 18:51 | 48.62155 | 8.70849 | 30837 ft | 462 kts | 190° |
| 2026-05-05 18:52 | 48.55829 | 8.69165 | 30839 ft | 462 kts | 190° |
| 2026-05-05 18:52 | 48.49539 | 8.67494 | 30626 ft | 455 kts | 190° |
| 2026-05-05 18:53 | 48.46367 | 8.66654 | 30057 ft | 467 kts | 190° |
| 2026-05-05 18:53 | 48.43143 | 8.65801 | 29276 ft | 473 kts | 190° |
| 2026-05-05 18:53 | 48.39896 | 8.64943 | 28493 ft | 473 kts | 190° |
| 2026-05-05 18:53 | 48.36666 | 8.64088 | 27732 ft | 469 kts | 190° |
| 2026-05-05 18:54 | 48.33541 | 8.63196 | 27010 ft | 463 kts | 191° |
| 2026-05-05 18:54 | 48.30383 | 8.62234 | 26279 ft | 458 kts | 192° |
| 2026-05-05 18:54 | 48.27278 | 8.61267 | 25576 ft | 453 kts | 192° |
| 2026-05-05 18:54 | 48.24213 | 8.60313 | 24909 ft | 448 kts | 192° |
| 2026-05-05 18:55 | 48.21166 | 8.59373 | 24239 ft | 444 kts | 191° |
| 2026-05-05 18:55 | 48.18163 | 8.58457 | 23580 ft | 439 kts | 191° |
| 2026-05-05 18:55 | 48.15189 | 8.57560 | 22855 ft | 434 kts | 191° |
| 2026-05-05 18:55 | 48.12242 | 8.56678 | 22103 ft | 429 kts | 192° |
| 2026-05-05 18:56 | 48.09423 | 8.55344 | 21347 ft | 424 kts | 205° |
| 2026-05-05 18:56 | 48.06998 | 8.52896 | 20658 ft | 420 kts | 222° |
| 2026-05-05 18:56 | 48.05210 | 8.49553 | 19960 ft | 418 kts | 239° |
| 2026-05-05 18:56 | 48.03810 | 8.45786 | 19275 ft | 412 kts | 235° |
| 2026-05-05 18:57 | 48.01868 | 8.42697 | 18602 ft | 406 kts | 217° |
| 2026-05-05 18:57 | 47.99416 | 8.40726 | 18118 ft | 399 kts | 200° |
| 2026-05-05 18:57 | 47.96750 | 8.39859 | 17899 ft | 385 kts | 187° |
| 2026-05-05 18:57 | 47.94127 | 8.39933 | 17783 ft | 373 kts | 175° |
| 2026-05-05 18:58 | 47.91601 | 8.40801 | 17093 ft | 375 kts | 163° |
| 2026-05-05 18:58 | 47.89710 | 8.42132 | 16524 ft | 379 kts | 152° |
| 2026-05-05 18:58 | 47.87864 | 8.44348 | 15935 ft | 383 kts | 135° |
| 2026-05-05 18:58 | 47.86268 | 8.47515 | 15353 ft | 382 kts | 128° |
| 2026-05-05 18:59 | 47.84749 | 8.50762 | 14747 ft | 380 kts | 128° |
| 2026-05-05 18:59 | 47.83211 | 8.53929 | 14162 ft | 377 kts | 130° |
| 2026-05-05 18:59 | 47.81647 | 8.57061 | 13543 ft | 375 kts | 130° |
| 2026-05-05 18:59 | 47.80106 | 8.60098 | 13053 ft | 370 kts | 130° |
| 2026-05-05 19:00 | 47.78556 | 8.63126 | 12882 ft | 368 kts | 131° |
| 2026-05-05 19:00 | 47.76992 | 8.66160 | 12870 ft | 368 kts | 131° |
| 2026-05-05 19:00 | 47.75476 | 8.69101 | 12886 ft | 349 kts | 131° |
| 2026-05-05 19:00 | 47.74040 | 8.71884 | 12902 ft | 330 kts | 131° |
| 2026-05-05 19:01 | 47.72678 | 8.74514 | 12902 ft | 313 kts | 132° |
| 2026-05-05 19:01 | 47.71665 | 8.76461 | 12906 ft | 308 kts | 132° |
| 2026-05-05 19:01 | 47.70346 | 8.78985 | 12881 ft | 309 kts | 132° |
| 2026-05-05 19:01 | 47.69023 | 8.81517 | 12890 ft | 310 kts | 132° |
| 2026-05-05 19:02 | 47.67705 | 8.84045 | 12884 ft | 311 kts | 132° |
| 2026-05-05 19:02 | 47.66401 | 8.86542 | 12878 ft | 311 kts | 131° |
| 2026-05-05 19:02 | 47.65073 | 8.89084 | 12883 ft | 311 kts | 132° |
| 2026-05-05 19:02 | 47.63751 | 8.91610 | 12886 ft | 311 kts | 131° |
| 2026-05-05 19:03 | 47.62425 | 8.94142 | 12900 ft | 311 kts | 131° |
| 2026-05-05 19:03 | 47.61099 | 8.96672 | 12877 ft | 311 kts | 131° |
| 2026-05-05 19:03 | 47.59796 | 8.99158 | 12882 ft | 311 kts | 131° |
| 2026-05-05 19:03 | 47.58494 | 9.01638 | 12894 ft | 311 kts | 131° |
| 2026-05-05 19:04 | 47.57201 | 9.04201 | 12873 ft | 313 kts | 127° |
| 2026-05-05 19:04 | 47.56369 | 9.07195 | 12899 ft | 318 kts | 103° |
| 2026-05-05 19:04 | 47.56072 | 9.10445 | 12874 ft | 319 kts | 98° |
| 2026-05-05 19:04 | 47.55833 | 9.13712 | 12884 ft | 319 kts | 98° |
| 2026-05-05 19:05 | 47.55575 | 9.16980 | 12877 ft | 319 kts | 98° |
| 2026-05-05 19:05 | 47.55310 | 9.20238 | 12871 ft | 319 kts | 99° |
| 2026-05-05 19:05 | 47.55168 | 9.23471 | 12887 ft | 320 kts | 88° |
| 2026-05-05 19:05 | 47.55760 | 9.26624 | 12878 ft | 321 kts | 60° |
| 2026-05-05 19:06 | 47.57249 | 9.29016 | 12891 ft | 316 kts | 31° |
| 2026-05-05 19:06 | 47.59280 | 9.30118 | 12877 ft | 310 kts | 4° |
| 2026-05-05 19:06 | 47.61394 | 9.29887 | 12873 ft | 303 kts | 340° |
| 2026-05-05 19:06 | 47.63236 | 9.28489 | 12892 ft | 296 kts | 317° |
| 2026-05-05 19:07 | 47.64526 | 9.26176 | 12873 ft | 290 kts | 295° |
| 2026-05-05 19:07 | 47.65034 | 9.23343 | 12879 ft | 285 kts | 268° |
| 2026-05-05 19:07 | 47.64524 | 9.20571 | 12774 ft | 277 kts | 239° |
| 2026-05-05 19:07 | 47.63437 | 9.18229 | 12452 ft | 282 kts | 234° |
| 2026-05-05 19:08 | 47.62295 | 9.15818 | 12050 ft | 282 kts | 237° |
| 2026-05-05 19:08 | 47.61255 | 9.13419 | 11681 ft | 280 kts | 238° |
| 2026-05-05 19:08 | 47.60244 | 9.10961 | 11310 ft | 278 kts | 239° |
| 2026-05-05 19:08 | 47.59265 | 9.08510 | 10947 ft | 276 kts | 239° |
| 2026-05-05 19:09 | 47.58302 | 9.06059 | 10576 ft | 274 kts | 239° |
| 2026-05-05 19:09 | 47.57423 | 9.03565 | 10208 ft | 273 kts | 250° |
| 2026-05-05 19:09 | 47.57349 | 9.00780 | 9947 ft | 276 kts | 282° |
| 2026-05-05 19:09 | 47.58344 | 8.98351 | 9883 ft | 285 kts | 314° |
| 2026-05-05 19:10 | 47.60122 | 8.97000 | 9882 ft | 297 kts | 345° |
| 2026-05-05 19:10 | 47.62203 | 8.97087 | 9883 ft | 304 kts | 11° |
| 2026-05-05 19:10 | 47.64158 | 8.98300 | 9880 ft | 311 kts | 31° |
| 2026-05-05 19:10 | 47.65718 | 9.00453 | 9874 ft | 312 kts | 54° |
| 2026-05-05 19:11 | 47.66541 | 9.03380 | 9880 ft | 308 kts | 83° |
| 2026-05-05 19:11 | 47.66478 | 9.06523 | 9878 ft | 304 kts | 101° |
| 2026-05-05 19:11 | 47.66159 | 9.09573 | 9879 ft | 293 kts | 102° |
| 2026-05-05 19:11 | 47.65726 | 9.12446 | 9888 ft | 279 kts | 110° |
| 2026-05-05 19:12 | 47.65076 | 9.15132 | 9886 ft | 277 kts | 115° |
| 2026-05-05 19:12 | 47.64381 | 9.17792 | 9880 ft | 276 kts | 118° |
| 2026-05-05 19:12 | 47.63338 | 9.20132 | 9879 ft | 270 kts | 138° |
| 2026-05-05 19:12 | 47.61826 | 9.21660 | 9879 ft | 260 kts | 163° |
| 2026-05-05 19:13 | 47.60102 | 9.22070 | 9880 ft | 253 kts | 187° |
| 2026-05-05 19:13 | 47.58437 | 9.21385 | 9879 ft | 248 kts | 210° |
| 2026-05-05 19:13 | 47.57137 | 9.19758 | 9879 ft | 247 kts | 233° |
| 2026-05-05 19:13 | 47.56418 | 9.17460 | 9884 ft | 249 kts | 256° |
| 2026-05-05 19:14 | 47.56378 | 9.14888 | 9882 ft | 253 kts | 274° |
| 2026-05-05 19:14 | 47.56618 | 9.12292 | 9879 ft | 254 kts | 275° |
| 2026-05-05 19:14 | 47.56863 | 9.09699 | 9880 ft | 254 kts | 275° |
| 2026-05-05 19:14 | 47.57094 | 9.07115 | 9880 ft | 254 kts | 274° |
| 2026-05-05 19:15 | 47.57319 | 9.04514 | 9882 ft | 254 kts | 274° |
| 2026-05-05 19:15 | 47.57753 | 9.01975 | 9878 ft | 258 kts | 291° |
| 2026-05-05 19:15 | 47.58845 | 8.99839 | 9764 ft | 267 kts | 317° |
| 2026-05-05 19:15 | 47.60516 | 8.98663 | 9400 ft | 275 kts | 345° |
| 2026-05-05 19:16 | 47.62427 | 8.98826 | 9012 ft | 282 kts | 16° |
| 2026-05-05 19:16 | 47.64075 | 9.00390 | 8609 ft | 285 kts | 47° |
| 2026-05-05 19:16 | 47.65026 | 9.02929 | 8250 ft | 283 kts | 72° |
| 2026-05-05 19:16 | 47.65645 | 9.05685 | 7939 ft | 280 kts | 68° |
| 2026-05-05 19:17 | 47.66746 | 9.08004 | 7883 ft | 277 kts | 40° |
| 2026-05-05 19:17 | 47.68410 | 9.09363 | 7879 ft | 272 kts | 12° |
| 2026-05-05 19:17 | 47.70261 | 9.09482 | 7880 ft | 265 kts | 344° |
| 2026-05-05 19:17 | 47.71889 | 9.08370 | 7878 ft | 255 kts | 316° |
| 2026-05-05 19:18 | 47.72916 | 9.06369 | 7881 ft | 245 kts | 288° |
| 2026-05-05 19:18 | 47.73145 | 9.03897 | 7878 ft | 237 kts | 260° |
| 2026-05-05 19:18 | 47.72580 | 9.01719 | 7884 ft | 227 kts | 238° |
| 2026-05-05 19:18 | 47.71685 | 8.99799 | 7883 ft | 225 kts | 234° |
| 2026-05-05 19:19 | 47.70746 | 8.97929 | 7886 ft | 226 kts | 233° |
| 2026-05-05 19:19 | 47.69802 | 8.96066 | 7881 ft | 227 kts | 233° |
| 2026-05-05 19:19 | 47.68851 | 8.94194 | 7879 ft | 227 kts | 233° |
| 2026-05-05 19:19 | 47.67902 | 8.92323 | 7881 ft | 227 kts | 233° |
| 2026-05-05 19:20 | 47.66954 | 8.90456 | 7881 ft | 227 kts | 233° |
| 2026-05-05 19:20 | 47.66002 | 8.88580 | 7884 ft | 227 kts | 233° |
| 2026-05-05 19:20 | 47.65057 | 8.86715 | 7881 ft | 227 kts | 233° |
| 2026-05-05 19:20 | 47.64110 | 8.84844 | 7881 ft | 227 kts | 233° |
| 2026-05-05 19:21 | 47.63176 | 8.82995 | 7888 ft | 227 kts | 233° |
| 2026-05-05 19:21 | 47.62223 | 8.81118 | 7885 ft | 227 kts | 233° |
| 2026-05-05 19:21 | 47.61200 | 8.79338 | 7883 ft | 228 kts | 225° |
| 2026-05-05 19:21 | 47.59980 | 8.77841 | 7880 ft | 229 kts | 213° |
| 2026-05-05 19:22 | 47.58438 | 8.77188 | 7888 ft | 236 kts | 184° |
| 2026-05-05 19:22 | 47.56840 | 8.77805 | 7882 ft | 245 kts | 154° |
| 2026-05-05 19:22 | 47.55581 | 8.79555 | 7892 ft | 254 kts | 129° |
| 2026-05-05 19:22 | 47.54638 | 8.81773 | 7882 ft | 256 kts | 124° |
| 2026-05-05 19:23 | 47.53773 | 8.84047 | 7815 ft | 256 kts | 121° |
| 2026-05-05 19:23 | 47.53189 | 8.86543 | 7511 ft | 259 kts | 106° |
| 2026-05-05 19:23 | 47.52823 | 8.89151 | 7182 ft | 259 kts | 103° |
| 2026-05-05 19:23 | 47.52408 | 8.91731 | 6843 ft | 257 kts | 113° |
| 2026-05-05 19:24 | 47.51435 | 8.93872 | 6486 ft | 249 kts | 143° |
| 2026-05-05 19:24 | 47.49941 | 8.95008 | 6176 ft | 239 kts | 172° |
| 2026-05-05 19:24 | 47.48350 | 8.94865 | 6011 ft | 227 kts | 203° |
| 2026-05-05 19:24 | 47.47030 | 8.93680 | 5999 ft | 220 kts | 221° |
| 2026-05-05 19:25 | 47.45869 | 8.92235 | 5833 ft | 214 kts | 223° |
| 2026-05-05 19:25 | 47.44784 | 8.90826 | 5726 ft | 201 kts | 223° |
| 2026-05-05 19:25 | 47.43806 | 8.89444 | 5556 ft | 190 kts | 233° |
| 2026-05-05 19:25 | 47.43465 | 8.87630 | 5319 ft | 184 kts | 269° |
| 2026-05-05 19:26 | 47.43608 | 8.85773 | 5087 ft | 180 kts | 276° |
| 2026-05-05 19:26 | 47.43762 | 8.83963 | 5005 ft | 177 kts | 274° |
| 2026-05-05 19:26 | 47.43885 | 8.82236 | 4997 ft | 177 kts | 274° |
| 2026-05-05 19:26 | 47.44005 | 8.80430 | 4893 ft | 176 kts | 274° |
| 2026-05-05 19:27 | 47.44124 | 8.78635 | 4643 ft | 175 kts | 274° |
| 2026-05-05 19:27 | 47.44252 | 8.76854 | 4372 ft | 174 kts | 274° |
| 2026-05-05 19:27 | 47.44379 | 8.75080 | 4112 ft | 173 kts | 274° |
| 2026-05-05 19:27 | 47.44503 | 8.73325 | 3860 ft | 171 kts | 274° |
| 2026-05-05 19:28 | 47.44627 | 8.71578 | 3605 ft | 169 kts | 274° |
| 2026-05-05 19:28 | 47.44748 | 8.69869 | 3357 ft | 165 kts | 274° |
| 2026-05-05 19:28 | 47.44864 | 8.68241 | 3133 ft | 155 kts | 274° |
| 2026-05-05 19:28 | 47.44976 | 8.66660 | 2903 ft | 156 kts | 274° |
| 2026-05-05 19:29 | 47.45088 | 8.65071 | 2667 ft | 158 kts | 274° |
| 2026-05-05 19:29 | 47.45204 | 8.63449 | 2419 ft | 157 kts | 275° |
| 2026-05-05 19:29 | 47.45316 | 8.61868 | 2184 ft | 157 kts | 275° |
| 2026-05-05 19:29 | 47.45431 | 8.60258 | 1945 ft | 158 kts | 275° |
| 2026-05-05 19:30 | 47.45546 | 8.58637 | 1713 ft | 159 kts | 274° |
| 2026-05-05 19:30 | 47.45660 | 8.57018 | 1485 ft | 159 kts | 274° |
| 2026-05-05 19:30 | 47.45760 | 8.55537 | 1409 ft | 120 kts | 276° |
| 2026-05-05 19:30 | 47.45812 | 8.54865 | 1399 ft | 26 kts | 277° |
| 2026-05-05 19:31 | 47.45824 | 8.54636 | 1400 ft | 26 kts | 269° |
| 2026-05-05 19:31 | 47.45794 | 8.54405 | 1401 ft | 13 kts | 250° |
| 2026-05-05 19:31 | 47.45759 | 8.54266 | 1401 ft | 16 kts | 248° |
| 2026-05-05 19:31 | 47.45671 | 8.54207 | 1394 ft | 14 kts | 164° |
| 2026-05-05 19:32 | 47.45608 | 8.54306 | 1402 ft | 14 kts | 111° |
| 2026-05-05 19:32 | 47.45575 | 8.54442 | 1403 ft | 14 kts | 109° |
| 2026-05-05 19:32 | 47.45542 | 8.54584 | 1405 ft | 15 kts | 109° |
| 2026-05-05 19:32 | 47.45516 | 8.54709 | 1408 ft | 14 kts | 107° |
| 2026-05-05 19:33 | 47.45486 | 8.54854 | 1403 ft | 16 kts | 107° |
| 2026-05-05 19:33 | 47.45453 | 8.54998 | 1408 ft | 9 kts | 108° |
| 2026-05-05 19:33 | 47.45436 | 8.55095 | 1405 ft | 10 kts | 104° |
| 2026-05-05 19:33 | 47.45410 | 8.55204 | 1413 ft | 12 kts | 116° |
| 2026-05-05 19:34 | 47.45369 | 8.55314 | 1413 ft | 12 kts | 120° |
| 2026-05-05 19:34 | 47.45345 | 8.55377 | 1411 ft | 6 kts | 120° |
| 2026-05-05 19:34 | 47.45321 | 8.55438 | 1415 ft | 7 kts | 119° |
| 2026-05-05 19:35 | 47.45319 | 8.55443 | 1415 ft | 0 kts | 119° |
| 2026-05-05 19:38 | 47.45316 | 8.55453 | 1417 ft | 3 kts | 119° |
| 2026-05-05 19:38 | 47.45305 | 8.55480 | 1414 ft | 5 kts | 119° |
| 2026-05-05 19:38 | 47.45289 | 8.55522 | 1418 ft | 5 kts | 117° |
| 2026-05-05 19:38 | 47.45278 | 8.55576 | 1413 ft | 6 kts | 102° |
| 2026-05-05 19:39 | 47.45270 | 8.55649 | 1415 ft | 9 kts | 97° |
| 2026-05-05 19:39 | 47.45262 | 8.55757 | 1413 ft | 12 kts | 95° |
| 2026-05-05 19:39 | 47.45257 | 8.55840 | 1419 ft | 4 kts | 95° |
| 2026-05-05 19:39 | 47.45254 | 8.55897 | 1418 ft | 5 kts | 95° |
| 2026-05-05 19:40 | 47.45250 | 8.55957 | 1413 ft | 7 kts | 95° |
| 2026-05-05 19:40 | 47.45223 | 8.55990 | 1417 ft | 5 kts | 164° |
| 2026-05-05 19:40 | 47.45187 | 8.55992 | 1418 ft | 6 kts | 183° |
| 2026-05-05 19:40 | 47.45161 | 8.55990 | 1417 ft | 0 kts | 183° |